Bill Berry (bbr) — WDB8998 — position and weather

sailwx.info

Track history (hours):
 
Tides and Currents Weather Stations Pressure Air Temp Water Temp Dewpoint Dewpoint Depression Visibility Wind Speed Wind Dir Waves Ship Positions

Bill Berry (bbr)

Owner: INGRAM BARGE COMPANY, Nashville, TN. More information available from US FCC via Universal Licensing System and Coast Guard Vessel Documentation Center.

Last reported at 2015-Apr-17 13:08 UTC. Time now 2015-Apr-21 23:30 UTC.
Position N 39°03' W 084°53'.

Length 41 m; draft 3.5 m.

Type: Towing. MMSI: 366967630.

Date/timePositionNaut miles runAvg speedWind from/ knotsBaromVisibWave heightAir tempDewpointWater temp
2015-Apr-17 13:08N 39°03' W 084°53'3 2.6
2015-Apr-17 12:03N 39°05' W 084°51'0 0.4
2015-Apr-17 11:30N 39°05' W 084°51'2 1.3
2015-Apr-17 09:32N 39°07' W 084°48'6 5.7
2015-Apr-17 08:31N 39°06' W 084°41'0 0.0
2015-Apr-17 07:33N 39°06' W 084°41'0 0.0
2015-Apr-17 06:32N 39°06' W 084°41'0 0.0
2015-Apr-17 05:33N 39°06' W 084°41'0 0.0
2015-Apr-17 04:33N 39°06' W 084°41'0 0.0
2015-Apr-17 03:32N 39°06' W 084°41'0 0.0
2015-Apr-17 02:33N 39°06' W 084°41'5 5.6
2015-Apr-17 01:34N 39°05' W 084°34'1 1.0
2015-Apr-17 00:32N 39°06' W 084°33'0 0.2
2015-Apr-16 23:32N 39°06' W 084°33'0 0.1
2015-Apr-16 22:33N 39°06' W 084°33'3 2.7
2015-Apr-16 21:33N 39°04' W 084°36'4 4.3
2015-Apr-16 20:32N 39°06' W 084°41'4 4.2
2015-Apr-16 19:33N 39°09' W 084°45'5 4.1
2015-Apr-16 18:20N 39°06' W 084°50'3 3.7
2015-Apr-16 17:29N 39°04' W 084°53'4 4.0
2015-Apr-16 16:23N 38°60' W 084°50'  
Track history (hours):
 
Tides and Currents Weather Stations Pressure Air Temp Water Temp Dewpoint Dewpoint Depression Visibility Wind Speed Wind Dir Waves Ship Positions

Bill Berry (bbr)

Owner: INGRAM BARGE COMPANY, Nashville, TN. More information available from US FCC via Universal Licensing System and Coast Guard Vessel Documentation Center.

Last reported at 2015-Apr-17 13:08 UTC. Time now 2015-Apr-21 23:30 UTC.
Position N 39°03' W 084°53'.

Length 41 m; draft 3.5 m.

Type: Towing. MMSI: 366967630.

Date/timePositionNaut miles runAvg speedWind from/ knotsBaromVisibWave heightAir tempDewpointWater temp
2015-Apr-17 13:08N 39°03' W 084°53'3 2.6
2015-Apr-17 12:03N 39°05' W 084°51'0 0.4
2015-Apr-17 11:30N 39°05' W 084°51'2 1.3
2015-Apr-17 09:32N 39°07' W 084°48'6 5.7
2015-Apr-17 08:31N 39°06' W 084°41'0 0.0
2015-Apr-17 07:33N 39°06' W 084°41'0 0.0
2015-Apr-17 06:32N 39°06' W 084°41'0 0.0
2015-Apr-17 05:33N 39°06' W 084°41'0 0.0
2015-Apr-17 04:33N 39°06' W 084°41'0 0.0
2015-Apr-17 03:32N 39°06' W 084°41'0 0.0
2015-Apr-17 02:33N 39°06' W 084°41'5 5.6
2015-Apr-17 01:34N 39°05' W 084°34'1 1.0
2015-Apr-17 00:32N 39°06' W 084°33'0 0.2
2015-Apr-16 23:32N 39°06' W 084°33'0 0.1
2015-Apr-16 22:33N 39°06' W 084°33'3 2.7
2015-Apr-16 21:33N 39°04' W 084°36'4 4.3
2015-Apr-16 20:32N 39°06' W 084°41'4 4.2
2015-Apr-16 19:33N 39°09' W 084°45'5 4.1
2015-Apr-16 18:20N 39°06' W 084°50'3 3.7
2015-Apr-16 17:29N 39°04' W 084°53'4 4.0
2015-Apr-16 16:23N 38°60' W 084°50'  

Dump ship's entire track history